createdAt,value
2022-10-11T00:00:14.303Z,11.71
2022-10-11T00:05:15.530Z,11.63
2022-10-11T00:10:16.725Z,11.61
2022-10-11T00:15:17.948Z,11.41
2022-10-11T00:20:19.157Z,11.75
2022-10-11T00:25:20.408Z,11.74
2022-10-11T00:30:21.648Z,11.89
2022-10-11T00:35:22.913Z,11.93
2022-10-11T00:40:24.268Z,12.03
2022-10-11T00:45:25.519Z,11.70
2022-10-11T00:50:26.723Z,11.86
2022-10-11T00:55:28.289Z,11.71
2022-10-11T01:00:29.495Z,12.00
2022-10-11T01:05:30.810Z,12.16
2022-10-11T01:10:32.044Z,12.08
2022-10-11T01:15:33.280Z,12.23
2022-10-11T01:20:34.489Z,12.19
2022-10-11T01:25:35.690Z,12.34
2022-10-11T01:30:36.899Z,12.38
2022-10-11T01:35:38.133Z,12.30
2022-10-11T01:40:39.339Z,12.52
2022-10-11T01:45:41.475Z,11.68
2022-10-11T01:50:42.738Z,12.14
2022-10-11T01:55:44.210Z,12.24
2022-10-11T02:00:45.553Z,12.28
2022-10-11T02:05:46.773Z,12.25
2022-10-11T02:10:48.053Z,12.35
2022-10-11T02:15:49.269Z,12.48
2022-10-11T02:20:50.503Z,11.91
2022-10-11T02:25:51.707Z,12.17
2022-10-11T02:30:53.011Z,12.39
2022-10-11T02:35:54.210Z,12.39
2022-10-11T02:40:55.653Z,12.38
2022-10-11T02:45:56.860Z,12.12
2022-10-11T02:50:58.114Z,12.41
2022-10-11T02:55:59.367Z,12.55
2022-10-11T03:01:00.592Z,12.47
2022-10-11T03:06:02.193Z,12.64
2022-10-11T03:11:03.696Z,12.76
2022-10-11T03:16:04.945Z,12.71
2022-10-11T03:21:06.303Z,12.39
2022-10-11T03:26:08.057Z,12.44
2022-10-11T03:31:09.746Z,12.58
2022-10-11T03:36:10.938Z,12.56
2022-10-11T03:41:12.159Z,12.27
2022-10-11T03:46:13.357Z,12.30
2022-10-11T03:51:15.105Z,12.59
2022-10-11T03:56:16.636Z,12.70
2022-10-11T04:01:17.956Z,12.74
2022-10-11T04:06:19.203Z,12.57
2022-10-11T04:11:20.450Z,12.57
2022-10-11T04:16:21.640Z,12.77
2022-10-11T04:21:22.840Z,12.96
2022-10-11T04:26:24.051Z,12.70
2022-10-11T04:31:25.259Z,12.90
2022-10-11T04:36:26.612Z,12.82
2022-10-11T04:41:28.373Z,12.81
2022-10-11T04:46:29.599Z,12.45
2022-10-11T04:51:30.873Z,12.57
2022-10-11T04:56:32.089Z,12.64
2022-10-11T05:01:33.342Z,12.76
2022-10-11T05:06:34.622Z,12.77
2022-10-11T05:11:35.879Z,12.90
2022-10-11T05:16:37.086Z,12.88
2022-10-11T05:21:38.363Z,13.02
2022-10-11T05:26:39.575Z,13.04
2022-10-11T05:31:40.772Z,12.95
2022-10-11T05:36:41.987Z,13.07
2022-10-11T05:41:43.193Z,13.06
2022-10-11T05:46:44.454Z,13.11
2022-10-11T05:51:45.696Z,13.13
2022-10-11T05:56:46.944Z,12.77
2022-10-11T06:01:48.263Z,12.92
2022-10-11T06:06:49.485Z,13.05
2022-10-11T06:11:50.741Z,13.19
2022-10-11T06:16:52.269Z,13.24
2022-10-11T06:21:53.533Z,13.46
2022-10-11T06:26:55.639Z,13.59
2022-10-11T06:31:56.960Z,13.34
2022-10-11T06:36:58.276Z,13.22
2022-10-11T06:41:59.527Z,13.05
2022-10-11T06:47:00.850Z,13.46
2022-10-11T06:52:02.212Z,13.54
2022-10-11T06:57:03.538Z,13.50
2022-10-11T07:02:04.755Z,13.48
2022-10-11T07:07:05.968Z,13.49
2022-10-11T07:12:07.187Z,13.74
2022-10-11T07:17:08.394Z,13.92
2022-10-11T07:22:09.595Z,13.99
2022-10-11T07:27:10.815Z,13.76
2022-10-11T07:32:12.068Z,13.98
2022-10-11T07:37:13.311Z,14.12
2022-10-11T07:42:14.615Z,14.19
2022-10-11T07:47:15.840Z,14.28
2022-10-11T07:52:17.045Z,13.96
2022-10-11T07:57:18.245Z,14.05
2022-10-11T08:02:19.449Z,14.31
2022-10-11T08:07:20.681Z,14.63
2022-10-11T08:12:22.299Z,14.66
2022-10-11T08:17:23.512Z,14.25
2022-10-11T08:22:24.754Z,14.60
2022-10-11T08:27:25.967Z,14.48
2022-10-11T08:32:27.254Z,14.56
2022-10-11T08:37:28.633Z,15.80
2022-10-11T08:42:29.900Z,15.81
2022-10-11T08:47:31.119Z,15.14
2022-10-11T08:52:32.425Z,14.81
2022-10-11T08:57:34.479Z,14.89
2022-10-11T09:03:02.803Z,15.13
2022-10-11T09:07:56.909Z,14.88
2022-10-11T09:12:58.134Z,15.21
2022-10-11T09:17:59.326Z,15.17
2022-10-11T09:23:00.598Z,15.13
2022-10-11T09:28:03.589Z,15.15
2022-10-11T09:33:05.265Z,15.49
2022-10-11T09:38:06.477Z,15.36
2022-10-11T09:43:07.894Z,15.17
2022-10-11T09:48:09.411Z,15.52
2022-10-11T09:53:10.778Z,15.39
2022-10-11T09:58:11.993Z,16.01
2022-10-11T10:03:13.200Z,17.10
2022-10-11T10:08:14.524Z,17.83
2022-10-11T10:13:15.735Z,17.34
2022-10-11T10:18:16.974Z,18.20
2022-10-11T10:23:18.185Z,18.25
2022-10-11T10:28:28.451Z,18.40
2022-10-11T10:33:29.753Z,18.14
2022-10-11T10:38:31.371Z,18.32
2022-10-11T10:43:32.578Z,18.52
2022-10-11T10:49:01.710Z,18.39
2022-10-11T10:53:55.044Z,17.68
2022-10-11T10:58:56.258Z,17.67
2022-10-11T11:03:57.519Z,17.32
2022-10-11T11:08:58.765Z,17.83
2022-10-11T11:13:59.997Z,18.08
2022-10-11T11:19:01.239Z,18.50
2022-10-11T11:24:02.680Z,18.39
2022-10-11T11:29:04.078Z,18.02
2022-10-11T11:34:05.690Z,17.95
2022-10-11T11:39:06.885Z,17.88
2022-10-11T11:44:08.087Z,17.66
2022-10-11T11:49:12.830Z,17.54
2022-10-11T11:54:14.326Z,17.27
2022-10-11T11:59:15.563Z,17.36
2022-10-11T12:04:16.863Z,17.28
2022-10-11T12:09:18.117Z,17.19
2022-10-11T12:14:19.340Z,16.88
2022-10-11T12:19:20.614Z,16.95
2022-10-11T12:24:21.821Z,17.06
2022-10-11T12:29:28.453Z,16.92
2022-10-11T12:34:30.593Z,17.06
2022-10-11T12:39:31.873Z,16.99
2022-10-11T12:44:33.120Z,16.95
2022-10-11T12:49:36.293Z,16.74
2022-10-11T12:54:37.628Z,16.82
2022-10-11T12:59:38.856Z,16.56
2022-10-11T13:04:40.073Z,16.26
2022-10-11T13:09:45.327Z,16.30
2022-10-11T13:14:49.397Z,16.25
2022-10-11T13:19:50.617Z,16.15
2022-10-11T13:24:51.851Z,16.28
2022-10-11T13:29:53.101Z,16.16
2022-10-11T13:34:57.559Z,15.96
2022-10-11T13:39:58.948Z,16.36
2022-10-11T13:45:00.277Z,16.23
2022-10-11T13:50:01.619Z,16.43
2022-10-11T13:55:02.851Z,16.69
2022-10-11T14:00:04.268Z,16.76
2022-10-11T14:05:05.813Z,16.73
2022-10-11T14:10:07.172Z,16.88
2022-10-11T14:15:08.430Z,16.77
2022-10-11T14:20:11.549Z,17.05
2022-10-11T14:25:13.191Z,17.68
2022-10-11T14:30:30.173Z,17.85
2022-10-11T14:35:34.345Z,17.87
2022-10-11T14:40:36.045Z,18.50
2022-10-11T14:45:37.268Z,19.15
2022-10-11T14:50:39.201Z,19.42
2022-10-11T14:55:40.618Z,19.16
2022-10-11T15:00:41.836Z,19.31
2022-10-11T15:05:43.080Z,19.52
2022-10-11T15:10:44.314Z,19.42
2022-10-11T15:15:45.980Z,18.93
2022-10-11T15:20:48.486Z,18.58
2022-10-11T15:25:50.157Z,18.71
2022-10-11T15:30:51.600Z,18.58
2022-10-11T15:35:52.819Z,18.03
2022-10-11T15:40:54.100Z,17.96
2022-10-11T15:45:55.372Z,17.68
2022-10-11T15:50:56.835Z,17.47
2022-10-11T15:55:59.930Z,17.29
2022-10-11T16:01:01.921Z,17.17
2022-10-11T16:06:05.398Z,17.89
2022-10-11T16:11:07.243Z,18.52
2022-10-11T16:16:08.994Z,18.41
2022-10-11T16:21:10.897Z,17.49
2022-10-11T16:26:12.135Z,17.09
2022-10-11T16:31:13.447Z,16.96
2022-10-11T16:36:36.461Z,16.13
2022-10-11T16:41:38.064Z,15.91
2022-10-11T16:46:40.588Z,16.16
2022-10-11T16:51:41.854Z,16.06
2022-10-11T16:56:47.329Z,15.67
2022-10-11T17:01:48.550Z,15.77
2022-10-11T17:06:49.897Z,15.51
2022-10-11T17:11:51.128Z,15.25
2022-10-11T17:16:52.406Z,15.58
2022-10-11T17:21:53.694Z,15.38
2022-10-11T17:26:54.919Z,15.47
2022-10-11T17:31:56.245Z,15.51
2022-10-11T17:36:57.498Z,15.25
2022-10-11T17:42:04.377Z,14.99
2022-10-11T17:47:05.673Z,14.92
2022-10-11T17:52:06.907Z,14.80
2022-10-11T17:57:08.335Z,14.87
2022-10-11T18:02:09.677Z,14.90
2022-10-11T18:07:11.052Z,14.71
2022-10-11T18:12:12.600Z,14.71
2022-10-11T18:17:14.881Z,14.86
2022-10-11T18:22:16.098Z,14.89
2022-10-11T18:27:17.501Z,14.79
2022-10-11T18:32:18.821Z,14.45
2022-10-11T18:37:20.038Z,14.31
2022-10-11T18:42:21.430Z,14.47
2022-10-11T18:47:22.680Z,14.37
2022-10-11T18:52:23.917Z,14.08
2022-10-11T18:57:25.138Z,14.20
2022-10-11T19:02:26.411Z,14.05
2022-10-11T19:07:28.616Z,13.65
2022-10-11T19:12:29.829Z,13.54
2022-10-11T19:17:31.204Z,13.69
2022-10-11T19:22:32.442Z,13.72
2022-10-11T19:27:33.917Z,13.93
2022-10-11T19:32:35.577Z,14.00
2022-10-11T19:37:36.838Z,14.00
2022-10-11T19:42:38.082Z,14.00
2022-10-11T19:47:39.546Z,13.86
2022-10-11T19:52:44.798Z,13.68
2022-10-11T19:57:46.270Z,13.42
2022-10-11T20:02:47.478Z,13.33
2022-10-11T20:07:48.757Z,13.54
2022-10-11T20:12:50.367Z,13.57
2022-10-11T20:17:51.734Z,13.68
2022-10-11T20:22:56.544Z,13.58
2022-10-11T20:27:57.757Z,13.55
2022-10-11T20:32:58.974Z,13.51
2022-10-11T20:38:00.201Z,13.65
2022-10-11T20:43:01.418Z,13.46
2022-10-11T20:48:02.623Z,13.50
2022-10-11T20:53:03.831Z,13.48
2022-10-11T20:58:05.110Z,13.33
2022-10-11T21:03:06.346Z,13.30
2022-10-11T21:08:07.550Z,13.21
2022-10-11T21:13:09.267Z,12.99
2022-10-11T21:18:10.500Z,13.20
2022-10-11T21:23:11.706Z,12.96
2022-10-11T21:28:12.975Z,12.82
2022-10-11T21:33:14.199Z,12.76
2022-10-11T21:38:15.401Z,12.73
2022-10-11T21:43:16.605Z,12.57
2022-10-11T21:48:17.823Z,12.48
2022-10-11T21:53:19.027Z,12.41
2022-10-11T21:58:20.232Z,12.63
2022-10-11T22:03:21.490Z,12.56
2022-10-11T22:08:22.689Z,12.44
2022-10-11T22:13:24.058Z,12.45
2022-10-11T22:18:25.509Z,12.71
2022-10-11T22:23:26.714Z,12.77
2022-10-11T22:28:27.946Z,12.76
2022-10-11T22:33:29.238Z,12.90
2022-10-11T22:38:30.447Z,12.96
2022-10-11T22:43:31.645Z,12.99
2022-10-11T22:48:32.855Z,12.90
2022-10-11T22:53:34.073Z,12.93
2022-10-11T22:58:35.273Z,12.57
2022-10-11T23:03:36.644Z,12.66
2022-10-11T23:08:37.969Z,12.42
2022-10-11T23:13:39.199Z,12.39
2022-10-11T23:18:40.421Z,12.22
2022-10-11T23:23:41.670Z,12.31
2022-10-11T23:28:43.021Z,12.38
2022-10-11T23:33:44.311Z,12.36
2022-10-11T23:38:45.590Z,12.42
2022-10-11T23:43:46.802Z,12.45
2022-10-11T23:48:48.022Z,12.66
2022-10-11T23:53:49.348Z,13.00
2022-10-11T23:58:50.618Z,13.08
